Time;durP1;ratioP1;P1;durP2;ratioP2;P2;SDS_P1;SDS_P2;PMS_P1;PMS_P2;Temp;Humidity;BMP_temperature;BMP_pressure;BME280_temperature;BME280_humidity;BME280_pressure;Samples;Min_cycle;Max_cycle;Signal;HPM_P1;HPM_P2
2022/07/25 00:02:09;;;;;;;17.27;14.13;;;13.10;86.50;;;;;;4995767;28;20209;-75
2022/07/25 00:04:37;;;;;;;16.17;14.47;;;13.00;84.90;;;;;;4996259;28;20189;-74
2022/07/25 00:07:04;;;;;;;14.97;13.37;;;13.10;85.10;;;;;;4996527;28;20189;-75
2022/07/25 00:09:31;;;;;;;15.33;12.83;;;13.30;85.50;;;;;;4996439;28;20193;-75
2022/07/25 00:11:59;;;;;;;15.03;12.87;;;13.40;85.00;;;;;;4996422;28;20174;-74
2022/07/25 00:14:26;;;;;;;17.37;11.77;;;13.50;85.20;;;;;;4996343;28;20196;-76
2022/07/25 00:16:54;;;;;;;20.37;12.07;;;13.60;84.20;;;;;;4996416;28;20188;-75
2022/07/25 00:19:21;;;;;;;14.17;11.00;;;13.70;84.20;;;;;;4996211;28;20220;-78
2022/07/25 00:21:50;;;;;;;15.37;11.70;;;13.70;83.10;;;;;;4988297;28;20492;-77
2022/07/25 00:24:17;;;;;;;13.20;10.80;;;13.80;83.50;;;;;;4995980;28;20540;-81
2022/07/25 00:26:44;;;;;;;14.23;10.53;;;13.90;83.60;;;;;;4995701;28;20688;-78
2022/07/25 00:29:12;;;;;;;14.70;10.70;;;14.00;83.10;;;;;;4995560;28;20181;-78
2022/07/25 00:31:39;;;;;;;13.00;9.70;;;14.10;83.00;;;;;;4995681;28;20630;-80
2022/07/25 00:34:06;;;;;;;12.13;9.10;;;14.10;81.60;;;;;;4995499;28;20186;-77
2022/07/25 00:36:34;;;;;;;11.03;8.77;;;14.10;82.30;;;;;;4991331;28;20193;-79
2022/07/25 00:39:01;;;;;;;13.87;8.90;;;14.10;81.40;;;;;;4976395;28;20221;-80
2022/07/25 00:41:28;;;;;;;11.30;8.40;;;14.30;81.70;;;;;;4992524;28;20182;-79
2022/07/25 00:43:56;;;;;;;15.53;8.60;;;14.30;81.30;;;;;;4995111;28;20244;-78
2022/07/25 00:46:23;;;;;;;16.10;8.07;;;14.40;81.30;;;;;;4999546;28;20220;-82
2022/07/25 00:48:50;;;;;;;12.37;7.67;;;14.60;80.70;;;;;;4996054;28;20190;-79
2022/07/25 00:51:18;;;;;;;12.47;8.30;;;14.60;80.70;;;;;;4995398;28;20574;-77
2022/07/25 00:53:45;;;;;;;11.20;7.67;;;14.70;80.40;;;;;;4991205;28;20194;-79
2022/07/25 00:56:13;;;;;;;10.80;7.67;;;14.80;79.70;;;;;;4995344;28;20224;-78
2022/07/25 00:58:40;;;;;;;14.07;8.27;;;14.80;79.20;;;;;;4992924;28;20220;-76
2022/07/25 01:01:07;;;;;;;12.80;8.57;;;14.80;79.40;;;;;;4993422;28;20644;-75
2022/07/25 01:03:35;;;;;;;13.60;8.07;;;15.00;78.90;;;;;;4994235;28;20706;-78
2022/07/25 01:06:03;;;;;;;10.80;7.10;;;15.20;78.30;;;;;;4986273;28;20190;-78
2022/07/25 01:08:31;;;;;;;11.43;7.20;;;15.30;78.10;;;;;;4994694;28;20248;-78
2022/07/25 01:10:58;;;;;;;17.73;8.63;;;15.40;77.90;;;;;;4997024;28;20641;-77
2022/07/25 01:13:26;;;;;;;11.13;7.20;;;15.50;77.90;;;;;;4975579;28;20649;-76
2022/07/25 01:15:53;;;;;;;9.80;7.20;;;15.70;75.90;;;;;;4991446;28;20185;-76
2022/07/25 01:18:20;;;;;;;13.67;7.97;;;15.70;76.30;;;;;;4993796;28;20218;-79
2022/07/25 01:20:48;;;;;;;14.00;7.77;;;15.80;75.60;;;;;;4989231;28;20182;-77
2022/07/25 01:23:15;;;;;;;9.73;7.37;;;15.90;75.90;;;;;;4990250;28;20182;-80
2022/07/25 01:25:43;;;;;;;11.63;6.87;;;16.10;75.00;;;;;;4994834;28;20184;-75
2022/07/25 01:28:10;;;;;;;9.17;7.00;;;16.20;74.70;;;;;;4997688;28;20539;-78
2022/07/25 01:30:38;;;;;;;13.47;7.30;;;16.30;74.30;;;;;;4987952;28;20201;-78
2022/07/25 01:33:06;;;;;;;10.10;6.50;;;16.30;73.70;;;;;;4993873;28;20268;-76
2022/07/25 01:35:33;;;;;;;10.87;6.57;;;16.50;74.30;;;;;;4992858;28;20190;-76
2022/07/25 01:38:01;;;;;;;8.07;6.00;;;16.50;74.30;;;;;;4979876;28;20218;-80
2022/07/25 01:40:28;;;;;;;11.53;6.60;;;16.60;73.10;;;;;;4991117;28;20202;-76
2022/07/25 01:42:56;;;;;;;8.63;5.90;;;16.70;73.50;;;;;;4994708;28;20184;-78
2022/07/25 01:45:23;;;;;;;11.10;6.83;;;16.70;72.70;;;;;;5012907;28;20176;-76
2022/07/25 01:47:50;;;;;;;8.03;5.67;;;16.70;72.60;;;;;;4995805;28;20676;-75
2022/07/25 01:50:18;;;;;;;8.00;4.57;;;16.90;72.30;;;;;;4993895;28;20232;-73
2022/07/25 01:52:45;;;;;;;6.37;4.03;;;17.00;71.80;;;;;;4994848;28;20204;-75
2022/07/25 01:55:13;;;;;;;6.50;4.00;;;17.10;71.40;;;;;;4994730;28;20262;-75
2022/07/25 01:57:41;;;;;;;8.17;4.07;;;17.30;70.70;;;;;;4994159;28;20240;-74
2022/07/25 02:00:12;;;;;;;5.27;3.70;;;17.40;69.40;;;;;;4994102;28;20203;-75
2022/07/25 02:02:40;;;;;;;9.57;4.10;;;17.30;69.20;;;;;;4994721;28;20178;-81
2022/07/25 02:05:10;;;;;;;6.90;3.97;;;17.30;69.30;;;;;;4991785;28;20185;-75
2022/07/25 02:07:37;;;;;;;6.37;3.80;;;17.30;69.30;;;;;;4993973;28;20184;-75
2022/07/25 02:10:06;;;;;;;4.27;3.17;;;17.50;68.90;;;;;;4994206;28;20659;-79
2022/07/25 02:12:34;;;;;;;8.03;3.43;;;17.40;68.20;;;;;;4994219;28;20178;-75
2022/07/25 02:15:02;;;;;;;4.20;3.03;;;17.30;68.80;;;;;;4988509;28;20272;-75
2022/07/25 02:17:29;;;;;;;7.27;3.17;;;17.70;68.50;;;;;;4994028;28;20213;-75
2022/07/25 02:19:56;;;;;;;10.33;2.63;;;18.00;67.90;;;;;;4991999;28;20200;-75
2022/07/25 02:22:24;;;;;;;6.83;3.30;;;18.20;67.90;;;;;;4993391;28;20259;-76
2022/07/25 02:24:51;;;;;;;6.77;2.57;;;18.60;66.60;;;;;;4993549;28;20196;-76
2022/07/25 02:27:18;;;;;;;3.13;1.97;;;18.30;67.80;;;;;;4995879;28;20261;-77
2022/07/25 02:29:46;;;;;;;3.20;2.20;;;18.50;66.40;;;;;;4993475;28;20185;-81
2022/07/25 02:32:13;;;;;;;4.33;2.33;;;18.60;66.60;;;;;;4983320;28;20696;-80
2022/07/25 02:34:40;;;;;;;2.57;1.90;;;18.50;66.30;;;;;;5012636;28;20764;-83
2022/07/25 02:37:08;;;;;;;4.27;1.97;;;18.50;66.50;;;;;;5012750;28;20188;-77
2022/07/25 02:39:35;;;;;;;4.90;2.23;;;18.80;66.10;;;;;;5012637;28;20710;-80
2022/07/25 02:42:02;;;;;;;5.73;2.10;;;18.90;64.80;;;;;;5009253;28;20216;-79
2022/07/25 02:44:30;;;;;;;4.47;1.80;;;19.00;65.30;;;;;;5011996;28;20199;-77
2022/07/25 02:46:57;;;;;;;2.90;1.50;;;19.00;64.00;;;;;;5011174;28;20188;-76
2022/07/25 02:49:24;;;;;;;5.83;2.10;;;19.10;65.80;;;;;;5005283;28;20210;-76
2022/07/25 02:51:52;;;;;;;3.27;1.90;;;19.20;64.90;;;;;;5009465;28;20650;-76
2022/07/25 02:54:19;;;;;;;2.93;1.90;;;19.30;64.90;;;;;;5010359;28;20575;-74
2022/07/25 02:56:46;;;;;;;3.20;1.97;;;19.00;64.20;;;;;;5011604;28;20197;-75
2022/07/25 02:59:13;;;;;;;4.03;1.80;;;19.00;66.50;;;;;;5011008;28;20217;-76
2022/07/25 03:01:41;;;;;;;4.07;1.90;;;19.20;64.30;;;;;;4992740;28;20311;-75
2022/07/25 03:04:08;;;;;;;2.17;1.63;;;19.60;64.00;;;;;;5007986;28;20189;-76
2022/07/25 03:06:35;;;;;;;2.57;1.50;;;19.90;62.40;;;;;;5010289;28;20193;-80
2022/07/25 03:09:03;;;;;;;2.40;1.63;;;20.10;62.20;;;;;;5009900;28;20604;-79
2022/07/25 03:11:30;;;;;;;2.30;1.50;;;20.10;61.20;;;;;;5010056;28;20185;-78
2022/07/25 03:13:58;;;;;;;2.87;1.40;;;20.10;62.40;;;;;;5011461;28;20187;-78
2022/07/25 03:16:25;;;;;;;3.70;1.77;;;20.20;61.00;;;;;;5011704;28;20271;-77
2022/07/25 03:18:53;;;;;;;3.13;1.70;;;20.30;60.60;;;;;;5011125;28;20570;-81
2022/07/25 03:21:20;;;;;;;5.20;1.73;;;20.10;61.40;;;;;;5011802;28;20192;-77
2022/07/25 03:23:47;;;;;;;2.83;1.70;;;20.40;61.40;;;;;;5009046;28;20703;-85
2022/07/25 03:26:15;;;;;;;4.20;1.63;;;20.10;60.50;;;;;;5004369;28;20236;-80
2022/07/25 03:28:42;;;;;;;3.87;2.00;;;20.30;60.80;;;;;;5010681;28;20275;-79
2022/07/25 03:31:09;;;;;;;3.27;1.73;;;20.70;61.20;;;;;;5011958;28;20243;-79
2022/07/25 03:33:37;;;;;;;4.50;1.80;;;20.90;59.50;;;;;;5009028;28;20729;-81
2022/07/25 03:36:04;;;;;;;4.00;1.90;;;20.60;60.00;;;;;;5006622;28;20300;-80
2022/07/25 03:38:31;;;;;;;4.77;1.60;;;19.80;62.00;;;;;;5004780;28;20224;-80
2022/07/25 03:40:59;;;;;;;4.33;2.10;;;19.30;63.70;;;;;;4998846;28;20242;-81
2022/07/25 03:43:26;;;;;;;3.40;1.80;;;19.70;63.60;;;;;;5010034;28;20184;-85
2022/07/25 03:45:53;;;;;;;7.70;1.93;;;20.00;62.10;;;;;;4996467;28;20273;-82
2022/07/25 03:48:21;;;;;;;5.47;2.17;;;20.30;61.20;;;;;;5002174;28;20272;-81
2022/07/25 03:50:48;;;;;;;4.17;1.70;;;20.30;61.10;;;;;;5012899;28;20255;-81
2022/07/25 03:53:15;;;;;;;7.23;2.27;;;20.40;59.80;;;;;;5013579;28;20181;-80
2022/07/25 03:55:43;;;;;;;7.60;2.60;;;20.50;60.70;;;;;;5003143;28;20235;-82
2022/07/25 03:58:10;;;;;;;9.87;2.90;;;20.80;61.30;;;;;;5005195;28;20220;-82
2022/07/25 04:00:37;;;;;;;10.17;2.77;;;21.20;59.60;;;;;;5004241;28;20979;-84
2022/07/25 04:03:05;;;;;;;11.10;2.27;;;21.50;58.70;;;;;;5004928;28;20205;-82
2022/07/25 04:05:33;;;;;;;7.30;2.27;;;21.90;57.40;;;;;;5012921;28;20190;-82
2022/07/25 04:08:00;;;;;;;6.07;1.93;;;22.30;55.70;;;;;;5014723;28;20199;-82
2022/07/25 04:10:27;;;;;;;10.17;2.03;;;22.20;54.60;;;;;;5014879;28;20181;-80
2022/07/25 04:12:55;;;;;;;11.70;2.00;;;22.80;54.50;;;;;;5014882;28;20671;-84
2022/07/25 04:15:22;;;;;;;6.97;1.90;;;22.40;52.50;;;;;;5003649;28;20253;-80
2022/07/25 04:17:49;;;;;;;6.03;1.87;;;21.90;54.30;;;;;;5002748;28;20745;-81
2022/07/25 04:20:17;;;;;;;5.70;2.00;;;21.70;55.30;;;;;;5012352;28;20650;-80
2022/07/25 04:22:44;;;;;;;5.20;1.87;;;22.20;55.10;;;;;;5011256;28;20616;-76
2022/07/25 04:25:11;;;;;;;5.23;1.87;;;22.70;53.50;;;;;;5001604;28;20186;-80
2022/07/25 04:27:39;;;;;;;5.43;1.60;;;22.70;53.70;;;;;;5006834;28;20196;-75
2022/07/25 04:30:07;;;;;;;4.37;1.63;;;22.30;52.90;;;;;;5010424;28;20268;-82
2022/07/25 04:32:34;;;;;;;4.03;1.17;;;22.50;52.90;;;;;;4890777;28;3173588;-75
2022/07/25 04:35:02;;;;;;;4.40;1.43;;;22.40;52.70;;;;;;5013786;28;20181;-83
2022/07/25 04:37:29;;;;;;;6.87;1.60;;;21.90;53.90;;;;;;5013387;28;20557;-73
2022/07/25 04:39:56;;;;;;;3.23;1.40;;;21.80;55.20;;;;;;5000346;28;20196;-83
2022/07/25 04:42:24;;;;;;;6.10;1.27;;;22.40;52.10;;;;;;5019473;28;20636;-78
2022/07/25 04:44:51;;;;;;;2.53;1.40;;;21.80;52.60;;;;;;5015229;28;20192;-81
2022/07/25 04:47:18;;;;;;;4.23;1.30;;;21.90;54.30;;;;;;5012220;28;20521;-76
2022/07/25 04:49:46;;;;;;;5.80;1.60;;;22.30;52.50;;;;;;5024973;28;20188;-81
2022/07/25 04:52:13;;;;;;;9.70;1.67;;;22.80;51.00;;;;;;5022517;28;20187;-80
2022/07/25 04:54:41;;;;;;;6.67;2.00;;;22.70;50.30;;;;;;5024064;28;20178;-79
2022/07/25 04:57:08;;;;;;;3.43;1.57;;;22.70;50.70;;;;;;5010598;28;20185;-76
2022/07/25 04:59:35;;;;;;;6.03;1.63;;;21.60;52.90;;;;;;5024685;28;20294;-78
2022/07/25 05:02:03;;;;;;;5.37;2.97;;;21.10;55.10;;;;;;5007454;28;20208;-75
2022/07/25 05:04:30;;;;;;;5.87;2.20;;;20.60;57.20;;;;;;5012230;28;20201;-78
2022/07/25 05:06:58;;;;;;;7.97;2.20;;;20.70;57.40;;;;;;5014123;28;20192;-82
2022/07/25 05:09:26;;;;;;;3.73;1.50;;;20.10;59.00;;;;;;5023792;28;20184;-83
2022/07/25 05:11:54;;;;;;;8.00;1.63;;;19.70;60.10;;;;;;5034207;28;20184;-81
2022/07/25 05:14:21;;;;;;;3.70;1.40;;;20.20;60.00;;;;;;5024352;28;20207;-82
2022/07/25 05:16:48;;;;;;;6.00;1.50;;;19.80;60.90;;;;;;5019146;28;20186;-83
2022/07/25 05:19:16;;;;;;;4.03;1.53;;;19.90;61.10;;;;;;5028867;28;20238;-81
2022/07/25 05:21:43;;;;;;;5.30;1.80;;;20.70;59.30;;;;;;5016111;28;20193;-81
2022/07/25 05:24:10;;;;;;;6.33;2.10;;;20.80;58.70;;;;;;5022814;28;20848;-77
2022/07/25 05:26:38;;;;;;;4.23;1.47;;;20.70;58.20;;;;;;5026008;28;20218;-79
2022/07/25 05:29:05;;;;;;;8.53;1.80;;;20.30;59.90;;;;;;5034080;28;20301;-80
2022/07/25 05:31:32;;;;;;;6.70;2.20;;;19.80;61.90;;;;;;5029455;28;20224;-79
2022/07/25 05:34:00;;;;;;;11.00;6.30;;;19.70;62.50;;;;;;5018301;28;20189;-81
2022/07/25 05:36:27;;;;;;;7.50;2.43;;;19.30;63.90;;;;;;5031713;28;20702;-80
2022/07/25 05:38:54;;;;;;;7.10;1.70;;;19.10;65.10;;;;;;5012999;28;20209;-79
2022/07/25 05:41:22;;;;;;;6.63;1.80;;;19.00;66.20;;;;;;5025602;28;20256;-78
2022/07/25 05:43:49;;;;;;;5.43;1.73;;;19.00;66.70;;;;;;5011716;28;20251;-79
2022/07/25 05:46:17;;;;;;;8.00;1.57;;;19.20;65.80;;;;;;5014303;28;20254;-76
2022/07/25 05:48:45;;;;;;;9.47;1.80;;;18.80;67.30;;;;;;5026336;28;20223;-77
2022/07/25 05:51:12;;;;;;;5.77;1.97;;;18.80;67.80;;;;;;5033707;28;20173;-74
2022/07/25 05:53:39;;;;;;;10.40;1.90;;;18.50;68.30;;;;;;5023960;28;20188;-74
2022/07/25 05:56:08;;;;;;;10.33;1.93;;;18.30;69.30;;;;;;5018958;28;20212;-77
2022/07/25 05:58:39;;;;;;;5.20;1.70;;;18.20;69.50;;;;;;5023916;28;20256;-73
2022/07/25 06:01:10;;;;;;;7.90;2.23;;;18.20;70.30;;;;;;5022838;28;20199;-74
2022/07/25 06:03:38;;;;;;;4.37;1.90;;;18.10;70.10;;;;;;5017038;28;20177;-76
2022/07/25 06:06:07;;;;;;;8.73;1.60;;;18.20;70.20;;;;;;5027945;28;20177;-77
2022/07/25 06:08:35;;;;;;;3.83;1.70;;;19.10;68.50;;;;;;5014762;28;20211;-77
2022/07/25 06:11:04;;;;;;;5.63;1.80;;;19.60;66.30;;;;;;5012450;28;20651;-76
2022/07/25 06:13:33;;;;;;;7.93;1.60;;;20.00;64.10;;;;;;5010630;28;20185;-79
2022/07/25 06:16:00;;;;;;;8.83;2.23;;;20.30;62.60;;;;;;5023636;28;20180;-73
2022/07/25 06:18:28;;;;;;;5.67;1.60;;;19.80;63.60;;;;;;5030817;28;20251;-73
2022/07/25 06:20:55;;;;;;;4.17;1.30;;;19.20;65.10;;;;;;5033028;28;20177;-75
2022/07/25 06:23:23;;;;;;;8.97;1.40;;;18.60;66.90;;;;;;5033427;28;20211;-74
2022/07/25 06:25:50;;;;;;;6.13;1.30;;;18.30;68.20;;;;;;5031132;28;20181;-77
2022/07/25 06:28:17;;;;;;;7.57;1.60;;;18.20;69.00;;;;;;5033679;28;20172;-79
2022/07/25 06:30:45;;;;;;;10.03;1.43;;;18.00;70.20;;;;;;5016363;28;20638;-74
2022/07/25 06:33:13;;;;;;;3.53;1.40;;;17.70;71.00;;;;;;4997140;28;20767;-74
2022/07/25 06:35:40;;;;;;;3.27;1.50;;;17.50;72.20;;;;;;4994241;28;20176;-77
2022/07/25 06:38:08;;;;;;;5.40;1.30;;;17.30;72.80;;;;;;4993425;28;20301;-75
2022/07/25 06:40:35;;;;;;;6.13;1.30;;;17.10;73.60;;;;;;4993870;28;20182;-78
2022/07/25 06:43:02;;;;;;;4.10;1.20;;;17.00;74.30;;;;;;4993861;28;20253;-75
2022/07/25 06:45:30;;;;;;;6.43;1.57;;;16.90;74.80;;;;;;4991674;28;20192;-75
2022/07/25 06:47:57;;;;;;;5.73;1.27;;;16.80;75.20;;;;;;4988320;28;20607;-77
2022/07/25 06:50:24;;;;;;;8.10;1.70;;;16.80;75.50;;;;;;4981050;28;20188;-74
2022/07/25 06:52:53;;;;;;;4.40;1.47;;;16.70;75.70;;;;;;4987176;28;20183;-79
2022/07/25 06:55:21;;;;;;;3.77;1.33;;;16.60;76.20;;;;;;4997174;28;20205;-75
2022/07/25 06:57:48;;;;;;;13.20;7.73;;;16.50;76.40;;;;;;4990069;28;20282;-75
2022/07/25 07:00:16;;;;;;;9.70;2.20;;;16.40;76.80;;;;;;4989003;28;20237;-74
2022/07/25 07:02:55;;;;;;;8.23;1.60;;;16.40;77.20;;;;;;4985294;28;20183;-74
2022/07/25 07:05:24;;;;;;;7.37;2.40;;;16.30;77.40;;;;;;4992775;28;20194;-75
2022/07/25 07:07:52;;;;;;;11.07;2.80;;;16.30;77.70;;;;;;4992612;28;20188;-79
2022/07/25 07:10:20;;;;;;;9.00;2.90;;;16.30;78.10;;;;;;4993265;28;20218;-75
2022/07/25 07:12:48;;;;;;;8.37;2.90;;;16.30;78.40;;;;;;4993571;28;20192;-82
2022/07/25 07:15:16;;;;;;;8.63;2.23;;;16.10;78.60;;;;;;4993311;28;20274;-83
2022/07/25 07:17:43;;;;;;;7.83;1.90;;;16.10;78.80;;;;;;4992651;28;20182;-86
2022/07/25 07:20:11;;;;;;;6.73;2.17;;;16.00;78.90;;;;;;4991508;28;20247;-84
2022/07/25 07:22:46;;;;;;;8.23;1.80;;;16.00;79.00;;;;;;4976206;28;20198;-81
2022/07/25 07:25:20;;;;;;;8.20;1.80;;;16.00;79.00;;;;;;4985649;28;20268;-79
2022/07/25 07:27:47;;;;;;;8.40;2.10;;;16.00;79.20;;;;;;4982448;28;20221;-84
2022/07/25 07:30:15;;;;;;;5.00;1.70;;;16.00;79.20;;;;;;4978991;28;20196;-83
2022/07/25 07:32:43;;;;;;;5.23;2.77;;;15.90;79.50;;;;;;4990284;28;20245;-77
2022/07/25 07:35:11;;;;;;;9.50;2.40;;;15.90;79.70;;;;;;4990520;28;20190;-83
2022/07/25 07:37:39;;;;;;;9.27;2.77;;;15.90;80.10;;;;;;4989514;28;20546;-75
2022/07/25 07:40:07;;;;;;;6.43;2.97;;;15.80;80.40;;;;;;4992557;28;20198;-78
2022/07/25 07:42:42;;;;;;;6.60;2.03;;;15.80;80.70;;;;;;4999461;28;20217;-74
2022/07/25 07:45:15;;;;;;;4.63;2.30;;;15.80;80.90;;;;;;4992540;28;20674;-78
2022/07/25 07:47:44;;;;;;;4.17;2.10;;;15.70;81.20;;;;;;4992525;28;20182;-78
2022/07/25 07:50:12;;;;;;;8.90;2.53;;;15.70;81.60;;;;;;4983665;28;20241;-81
2022/07/25 07:52:39;;;;;;;12.07;2.20;;;15.60;81.80;;;;;;4987524;28;20652;-80
2022/07/25 07:57:53;;;;;;;13.70;3.07;;;15.60;82.50;;;;;;4991023;28;20259;-85
2022/07/25 08:00:21;;;;;;;13.03;3.33;;;15.60;82.70;;;;;;4992828;28;20659;-81
2022/07/25 08:02:53;;;;;;;14.77;5.70;;;15.50;82.80;;;;;;4987504;28;20554;-82
2022/07/25 08:05:31;;;;;;;14.73;5.50;;;15.50;83.10;;;;;;4991909;28;20187;-81
2022/07/25 08:07:59;;;;;;;8.97;3.77;;;15.50;83.20;;;;;;4992236;28;20210;-80
2022/07/25 08:10:32;;;;;;;17.93;3.43;;;15.50;83.30;;;;;;4990207;28;20186;-82
2022/07/25 08:12:59;;;;;;;10.40;3.30;;;15.50;83.20;;;;;;4981229;28;20684;-83
2022/07/25 08:15:27;;;;;;;10.90;2.53;;;15.50;83.40;;;;;;4994650;28;20584;-82
2022/07/25 08:17:54;;;;;;;7.80;3.20;;;15.50;83.50;;;;;;4992354;28;20693;-82
2022/07/25 08:20:22;;;;;;;11.17;3.70;;;15.50;83.50;;;;;;4986639;28;20186;-85
2022/07/25 08:22:50;;;;;;;9.30;2.90;;;15.50;83.80;;;;;;4979161;28;20206;-82
2022/07/25 08:25:19;;;;;;;10.13;2.97;;;15.50;84.10;;;;;;4978036;28;20185;-85
2022/07/25 08:27:48;;;;;;;10.53;2.90;;;15.50;84.20;;;;;;4996177;28;20178;-83
2022/07/25 08:30:17;;;;;;;9.60;3.17;;;15.40;84.30;;;;;;4994896;28;20178;-86
2022/07/25 08:33:02;;;;;;;10.03;3.13;;;15.40;84.50;;;;;;4998491;28;20227;-86
2022/07/25 08:35:31;;;;;;;7.97;3.17;;;15.40;84.60;;;;;;4994906;28;20270;-85
2022/07/25 08:38:00;;;;;;;8.83;3.53;;;15.30;84.80;;;;;;4993113;28;20557;-85
2022/07/25 08:40:29;;;;;;;11.00;3.10;;;15.30;84.90;;;;;;4996304;28;20641;-84
2022/07/25 08:42:59;;;;;;;8.23;3.30;;;15.30;85.10;;;;;;4990321;28;20179;-80
2022/07/25 08:45:28;;;;;;;13.37;3.57;;;15.30;85.30;;;;;;4994303;28;20177;-84
2022/07/25 08:47:56;;;;;;;13.40;4.23;;;15.20;85.50;;;;;;4995612;28;20269;-85
2022/07/25 08:50:26;;;;;;;14.10;4.43;;;15.20;85.60;;;;;;4998162;28;20207;-82
2022/07/25 08:52:55;;;;;;;12.97;4.53;;;15.20;86.00;;;;;;4996107;28;20181;-85
2022/07/25 08:55:24;;;;;;;19.50;6.73;;;15.20;86.00;;;;;;4993818;28;20302;-86
2022/07/25 08:57:53;;;;;;;19.83;8.67;;;15.20;86.00;;;;;;4995498;28;20189;-85
2022/07/25 09:00:23;;;;;;;11.17;5.47;;;15.20;86.10;;;;;;4995721;28;20273;-85
2022/07/25 09:03:01;;;;;;;24.67;7.17;;;15.20;86.10;;;;;;4995930;28;20228;-84
2022/07/25 09:05:31;;;;;;;16.93;6.03;;;15.20;86.30;;;;;;4995589;28;20181;-85
2022/07/25 09:08:18;;;;;;;23.63;9.37;;;15.20;86.30;;;;;;4995613;28;20641;-84
2022/07/25 09:10:49;;;;;;;14.07;4.27;;;15.20;86.20;;;;;;4995711;28;20183;-82
2022/07/25 09:13:17;;;;;;;23.90;5.20;;;15.20;85.90;;;;;;4995316;28;20584;-84
2022/07/25 09:15:55;;;;;;;13.87;4.43;;;15.20;85.90;;;;;;4986989;28;20214;-82
2022/07/25 09:18:24;;;;;;;17.03;6.00;;;15.20;85.90;;;;;;4993044;28;20668;-81
2022/07/25 09:20:54;;;;;;;17.83;6.17;;;15.10;85.90;;;;;;4995078;28;20252;-81
2022/07/25 09:23:33;;;;;;;22.53;5.43;;;15.10;85.70;;;;;;5001789;28;20213;-85
2022/07/25 09:26:12;;;;;;;15.93;5.40;;;15.00;85.10;;;;;;4986403;28;20186;-85
2022/07/25 09:28:46;;;;;;;14.30;5.47;;;15.00;84.70;;;;;;4995215;28;20206;-87
2022/07/25 09:31:15;;;;;;;15.83;5.47;;;15.00;84.60;;;;;;4995354;28;20748;-82
2022/07/25 09:33:48;;;;;;;22.43;5.40;;;15.00;84.50;;;;;;4994053;28;20638;-86
2022/07/25 09:36:16;;;;;;;15.77;4.43;;;15.00;84.50;;;;;;4995590;28;20195;-83
2022/07/25 09:38:58;;;;;;;16.10;5.00;;;14.90;84.30;;;;;;4992679;28;20572;-84
2022/07/25 09:41:40;;;;;;;17.10;4.70;;;14.90;84.40;;;;;;4995366;28;20220;-77
2022/07/25 09:44:18;;;;;;;15.80;4.10;;;14.90;84.00;;;;;;4979225;28;20189;-82
2022/07/25 09:46:45;;;;;;;16.33;4.93;;;14.90;83.80;;;;;;4995673;28;20178;-75
2022/07/25 09:49:15;;;;;;;16.67;4.60;;;14.90;83.70;;;;;;5000499;28;20205;-84
2022/07/25 09:51:43;;;;;;;13.70;4.50;;;14.90;83.50;;;;;;4992998;28;20592;-79
2022/07/25 09:54:11;;;;;;;13.13;4.70;;;14.90;83.50;;;;;;4992517;28;20590;-77
2022/07/25 09:56:38;;;;;;;16.30;4.90;;;14.90;83.40;;;;;;4988094;28;20197;-78
2022/07/25 09:59:06;;;;;;;11.10;4.50;;;14.80;83.30;;;;;;4984340;28;20208;-76
2022/07/25 10:01:41;;;;;;;14.33;4.63;;;14.80;83.40;;;;;;4993270;28;20313;-77
2022/07/25 10:04:22;;;;;;;14.03;5.43;;;14.80;83.50;;;;;;4993119;28;20182;-79
2022/07/25 10:07:08;;;;;;;13.07;5.10;;;14.80;83.70;;;;;;4973057;28;20660;-82
2022/07/25 10:09:55;;;;;;;15.57;5.27;;;14.70;84.00;;;;;;4988726;28;20185;-75
2022/07/25 10:12:24;;;;;;;20.67;5.17;;;14.60;84.40;;;;;;4987191;28;20181;-78
2022/07/25 10:15:11;;;;;;;15.30;5.23;;;14.50;84.50;;;;;;4990091;28;20680;-83
2022/07/25 10:17:41;;;;;;;13.63;5.07;;;14.40;84.60;;;;;;4994576;28;20574;-75
2022/07/25 10:20:10;;;;;;;17.37;5.07;;;14.40;84.30;;;;;;4993480;28;20196;-78
2022/07/25 10:22:43;;;;;;;7.77;4.37;;;14.30;84.10;;;;;;4994226;28;20204;-81
2022/07/25 10:25:15;;;;;;;13.83;4.73;;;14.30;83.80;;;;;;4994269;28;20181;-85
2022/07/25 10:27:49;;;;;;;13.83;5.30;;;14.30;83.60;;;;;;4994292;28;20177;-84
2022/07/25 10:30:33;;;;;;;11.27;4.87;;;14.30;83.60;;;;;;4993331;28;20185;-85
2022/07/25 10:33:10;;;;;;;13.13;4.23;;;14.30;83.90;;;;;;4993433;28;20228;-87
2022/07/25 10:35:37;;;;;;;11.67;4.10;;;14.30;83.70;;;;;;4993266;28;20192;-86
2022/07/25 10:38:06;;;;;;;9.87;4.20;;;14.30;83.40;;;;;;4986044;28;20261;-88
2022/07/25 10:40:37;;;;;;;9.33;4.47;;;14.30;83.20;;;;;;4973701;28;20208;-87
2022/07/25 10:43:19;;;;;;;9.07;3.90;;;14.30;82.90;;;;;;4987444;28;20186;-88
2022/07/25 10:45:56;;;;;;;10.37;4.00;;;14.30;82.90;;;;;;4990976;28;20279;-87
2022/07/25 10:48:26;;;;;;;10.53;4.07;;;14.30;82.90;;;;;;4991013;28;20181;-86
2022/07/25 10:51:11;;;;;;;7.50;3.50;;;14.30;82.70;;;;;;4993983;28;20668;-88
2022/07/25 10:53:44;;;;;;;12.23;3.97;;;14.30;82.70;;;;;;4972890;28;20205;-86
2022/07/25 10:56:21;;;;;;;9.83;3.60;;;14.30;82.70;;;;;;4987903;28;20210;-89
2022/07/25 10:58:59;;;;;;;10.00;4.07;;;14.30;82.70;;;;;;4992014;28;20274;-87
2022/07/25 11:01:32;;;;;;;11.03;3.70;;;14.30;82.60;;;;;;4992843;28;20662;-88
2022/07/25 11:04:05;;;;;;;7.50;3.80;;;14.30;82.40;;;;;;4992923;28;20219;-88
2022/07/25 11:06:41;;;;;;;11.57;3.77;;;14.30;82.40;;;;;;4991971;28;20190;-86
2022/07/25 11:09:19;;;;;;;8.33;3.63;;;14.30;82.30;;;;;;4993570;28;20543;-84
2022/07/25 11:11:48;;;;;;;8.23;3.93;;;14.30;82.30;;;;;;4993244;28;20181;-83
2022/07/25 11:14:21;;;;;;;8.37;3.77;;;14.30;82.20;;;;;;4990121;28;20197;-87
2022/07/25 11:16:51;;;;;;;9.73;3.53;;;14.30;82.00;;;;;;4992657;28;20185;-86
2022/07/25 11:19:24;;;;;;;6.73;3.30;;;14.20;82.10;;;;;;4993512;28;20267;-88
2022/07/25 11:21:54;;;;;;;9.77;3.50;;;14.20;81.80;;;;;;4993561;28;20208;-81
2022/07/25 11:24:33;;;;;;;8.90;2.80;;;14.30;81.70;;;;;;4990597;28;20197;-78
2022/07/25 11:27:00;;;;;;;8.33;3.17;;;14.30;81.60;;;;;;4991468;28;20259;-83
2022/07/25 11:29:27;;;;;;;6.87;4.13;;;14.30;81.50;;;;;;4992264;28;20676;-82
2022/07/25 11:31:58;;;;;;;12.53;5.83;;;14.20;81.70;;;;;;4985204;28;20222;-81
2022/07/25 11:34:33;;;;;;;14.90;9.17;;;14.20;82.10;;;;;;4970748;28;20186;-81
2022/07/25 11:37:06;;;;;;;9.37;4.27;;;14.20;82.10;;;;;;4989307;28;20169;-78
2022/07/25 11:39:36;;;;;;;7.50;3.53;;;14.10;82.10;;;;;;4970855;28;20268;-77
2022/07/25 11:42:15;;;;;;;7.50;3.67;;;14.00;82.30;;;;;;4989210;28;20181;-75
2022/07/25 11:44:49;;;;;;;12.90;4.23;;;14.00;82.30;;;;;;4990954;28;20239;-81
2022/07/25 11:47:29;;;;;;;8.17;4.90;;;14.00;82.50;;;;;;4992542;28;20188;-82
2022/07/25 11:50:03;;;;;;;10.37;6.67;;;14.00;82.50;;;;;;4990504;28;20182;-77
2022/07/25 11:52:35;;;;;;;8.37;4.50;;;14.00;82.50;;;;;;4991546;28;20190;-79
2022/07/25 11:55:03;;;;;;;7.07;4.03;;;13.90;82.50;;;;;;4993834;28;20637;-78
2022/07/25 11:57:33;;;;;;;5.60;3.60;;;13.90;82.60;;;;;;4985642;28;20260;-79
2022/07/25 12:00:04;;;;;;;6.20;3.30;;;13.90;82.70;;;;;;4991423;28;20226;-76
2022/07/25 12:02:34;;;;;;;10.70;3.93;;;13.80;82.70;;;;;;4994436;28;20186;-81
2022/07/25 12:05:07;;;;;;;9.00;3.93;;;13.80;82.80;;;;;;4981503;28;20182;-76
2022/07/25 12:07:37;;;;;;;8.57;3.70;;;13.80;82.90;;;;;;4997198;28;20240;-86
2022/07/25 12:10:09;;;;;;;9.47;4.00;;;13.80;83.00;;;;;;4997010;28;20202;-86
2022/07/25 12:12:47;;;;;;;6.07;3.90;;;13.80;83.00;;;;;;4996526;28;20193;-87
2022/07/25 12:15:17;;;;;;;6.73;4.17;;;13.70;83.10;;;;;;4983286;28;20193;-84
2022/07/25 12:17:45;;;;;;;8.10;4.00;;;13.70;83.20;;;;;;4996951;28;20189;-84
2022/07/25 12:20:20;;;;;;;6.37;3.80;;;13.70;83.30;;;;;;4996674;28;20185;-80
2022/07/25 12:22:50;;;;;;;7.97;4.20;;;13.70;83.30;;;;;;4979394;28;20643;-85
2022/07/25 12:25:18;;;;;;;9.87;4.13;;;13.60;83.40;;;;;;4996959;28;20651;-85
2022/07/25 12:27:46;;;;;;;6.53;3.47;;;13.60;83.40;;;;;;4995974;28;20667;-86
2022/07/25 12:30:15;;;;;;;8.00;3.77;;;13.50;83.40;;;;;;4996716;28;20186;-85
2022/07/25 12:32:43;;;;;;;6.03;3.60;;;13.60;83.50;;;;;;4995954;28;20233;-82
2022/07/25 12:35:13;;;;;;;6.70;3.63;;;13.50;83.30;;;;;;4995715;28;20324;-84
2022/07/25 12:37:42;;;;;;;10.60;3.73;;;13.50;83.40;;;;;;4996273;28;20182;-85
2022/07/25 12:40:10;;;;;;;5.07;3.30;;;13.40;83.40;;;;;;4992621;28;20188;-84
2022/07/25 12:42:38;;;;;;;7.43;3.90;;;13.40;83.70;;;;;;4987248;28;20663;-82
2022/07/25 12:45:07;;;;;;;6.63;3.80;;;13.40;83.80;;;;;;4989030;28;20209;-84
2022/07/25 12:47:35;;;;;;;7.40;3.77;;;13.30;84.10;;;;;;4991066;28;20216;-84
2022/07/25 12:50:03;;;;;;;8.30;4.10;;;13.30;84.30;;;;;;4995953;28;20707;-83
2022/07/25 12:52:30;;;;;;;8.13;3.63;;;13.30;84.30;;;;;;4996432;28;20187;-81
2022/07/25 12:54:58;;;;;;;6.50;4.20;;;13.30;84.30;;;;;;4988186;28;20181;-83
2022/07/25 12:57:25;;;;;;;9.30;4.33;;;13.30;84.50;;;;;;4987684;28;20181;-75